Galena, Nevada Weather observations

Data are for 10 minute period ending at time listed.
 Day   Time    Ave.   Ave.  Ave.  Vector   Max.   Total    Solar   
  of    of     Air    Rel.  Wind   Wind    Wind  Precip.   Rad.    
Year   Day     Temp.  Hum.  Speed  Dir.    Gust                    
2016   (PST)    F      %     mph   deg.    mph     in.     W/m2    
------------------------------------------------------------------- 
 149   19:00   59.0    42   10.0   163     23.0   16.76      62  
 149   20:00   57.0    45    2.0   274     13.0   16.76      12  
 149   21:00   54.0    45    3.0   266      7.0   16.76       0  
 149   22:00   54.0    45    2.0   216     10.0   16.76       0  
 149   23:00   53.0    45    3.0   214     10.0   16.76       0  
 150    0:00   55.0    40    4.0   258     10.0   16.76       0  
 150    1:00   49.0    51    0.0   257      6.0   16.76       0  
 150    2:00   53.0    44    4.0   293      8.0   16.76       0  
 150    3:00   52.0    46    3.0   233      9.0   16.76       0  
 150    4:00   51.0    48    3.0   234      8.0   16.76       0  
 150    5:00   49.0    51    2.0    55      6.0   16.76       3  
 150    6:00   56.0    51    1.0    49      4.0   16.76      98  
 150    7:00   61.0    45    1.0    91      6.0   16.76     296  
 150    8:00   64.0    39    2.0    84      5.0   16.76     500  
 150    9:00   65.0    38    5.0    78      9.0   16.76     684  
 150   10:00   68.0    32    4.0    95     11.0   16.76     839  
 150   11:00   71.0    28    5.0   191     11.0   16.76     944  
 150   12:00   74.0    21   10.0   213     17.0   16.76     996  
 150   13:00   75.0    25    9.0     0     18.0   16.76     902  
 150   14:00   74.0    23    4.0   335     15.0   16.76     521  
 150   15:00   75.0    23   12.0   254     21.0   16.76     820  
 150   16:00   74.0    22   12.0   269     21.0   16.76     723  
 150   17:00   73.0    22   12.0   259     23.0   16.76     505  
 150   18:00   69.0    22   13.0   284     24.0   16.76     187  

Return to Galena, Nevada graphs page.


Western Regional Climate Center,wrcc@dri.edu